• Join FlightAware (Why Join?)
  • Login
  • US Flag 
07:44AM EDT


 

Airport Tracker/Info


-or-


 

Live Flight TrackerFlight Track Log ✈ UAL4234 ✈ 16-Apr-2013 ✈ KIAH - KRDU

Flight Track Log - Related Links

Times and Time Zones

All times are in EDT time to prevent confusion due to time zone crossing. See the UAL4234 flight status page for this flight to view local times or setup timezone preferences in your user account.

Time Position Orientation Groundspeed Altitude Reporting Facility
EDT Latitude Longitude Course Direction KTS MPH feet Rate Location/Type
04:58PM 29.9614 -95.3411 107° East 153 176 700  Level Houston Center
04:59PM 29.9444 -95.2764 107° East 205 236 2,500 1,860 Climbing Houston Center
04:59PM 29.9369 -95.2333 101° East 256 295 3,800 1,440 Climbing Houston Center
05:00PM 29.9283 -95.1775 100° East 261 300 4,000 720 Climbing Houston Center
05:01PM 29.9219 -95.0892 95° East 273 314 5,100 1,740 Climbing Houston Center
05:02PM 29.9150 -95.0011 95° East 275 316 7,700 2,220 Climbing Houston Center
05:03PM 29.9075 -94.9053 95° East 294 338 9,800 1,980 Climbing Houston Center
05:04PM 29.9000 -94.8039 95° East 306 352 11,900 1,740 Climbing Houston Center
05:05PM 29.8922 -94.7031 95° East 320 368 13,500 1,260 Climbing Houston Center
05:06PM 29.8844 -94.5894 94° East 344 396 14,600 1,200 Climbing Houston Center
05:07PM 29.8711 -94.4458 96° East 370 426 16,100 1,320 Climbing Houston Center
05:08PM 29.8614 -94.3222 95° East 384 442 17,400 1,200 Climbing Houston Center
05:09PM 29.8561 -94.1947 93° East 396 456 18,700 1,200 Climbing Houston Center
05:10PM 29.8531 -94.0653 92° East 402 463 20,000 1,140 Climbing Houston Center
05:11PM 29.8625 -93.9322 85° East 415 478 21,100 1,020 Climbing Houston Center
05:12PM 29.8775 -93.7989 83° East 420 483 22,200 1,140 Climbing Houston Center
05:13PM 29.8950 -93.6344 83° East 429 494 23,500 1,140 Climbing Houston Center
05:14PM 29.9094 -93.4964 83° East 433 498 24,600 1,020 Climbing Houston Center
05:15PM 29.9236 -93.3569 83° East 437 503 25,700 1,080 Climbing Houston Center
05:16PM 29.9411 -93.2064 82° East 437 503 26,900 1,020 Climbing Houston Center
05:17PM 29.9544 -93.0650 84° East 442 509 27,900 960 Climbing Houston Center
05:19PM 29.9692 -92.9233 83° East 446 513 29,000 1,020 Climbing Houston Center
05:20PM 29.9800 -92.7811 85° East 447 514 30,100 1,140 Climbing Houston Center
05:21PM 29.9944 -92.6078 84° East 453 521 31,400 1,140 Climbing Houston Center
05:22PM 30.0058 -92.4633 85° East 454 522 32,500 960 Climbing Houston Center
05:23PM 30.0164 -92.3164 85° East 459 528 33,500 960 Climbing Houston Center
05:24PM 30.0283 -92.1697 85° East 462 532 34,600 720 Climbing Houston Center
05:25PM 30.0394 -92.0239 85° East 460 529 35,000 600 Climbing Houston Center
05:26PM 30.0544 -91.8389 85° East 481 554 35,900 960 Climbing Houston Center
05:27PM 30.0661 -91.6878 85° East 466 536 37,000 480 Climbing Houston Center
05:28PM 30.0772 -91.5369 85° East 470 541 37,000  Level Houston Center
05:29PM 30.0875 -91.3794 86° East 491 565 37,000 -60 Level Houston Center
05:30PM 30.0989 -91.2183 85° East 504 580 36,900  Descending Houston Center
05:31PM 30.1097 -91.0544 86° East 510 587 37,000  Climbing Houston Center
05:32PM 30.1311 -90.8897 81° East 521 600 37,000  Level Houston Center
05:33PM 30.1806 -90.6978 73° East 524 603 37,000  Level Houston Center
05:34PM 30.2183 -90.5364 75° East 522 601 37,000  Level Houston Center
05:35PM 30.2586 -90.3750 74° East 524 603 37,000  Level Houston Center
05:36PM 30.2964 -90.2133 75° East 523 602 37,000  Level Houston Center
05:37PM 30.3356 -90.0522 74° East 521 600 37,000  Level Houston Center
05:38PM 30.3731 -89.8886 75° East 518 596 37,000  Level Houston Center
05:39PM 30.4200 -89.6933 74° East 524 603 37,000  Level Houston Center
05:40PM 30.4539 -89.5497 75° East 527 606 37,000  Level Houston Center
05:41PM 30.4997 -89.3558 75° East 522 601 37,000  Level Houston Center
05:42PM 30.5567 -89.2028 67° East 523 602 37,000  Level Houston Center
05:43PM 30.6378 -89.0678 55° Northeast 512 589 37,000  Level Houston Center
05:44PM 30.7275 -88.9142 56° Northeast 512 589 37,000  Level Houston Center
05:45PM 30.8083 -88.7792 55° Northeast 511 588 37,000  Level Houston Center
05:46PM 30.8894 -88.6419 55° Northeast 513 590 37,000  Level Houston Center
05:48PM 30.9775 -88.4950 55° Northeast 516 594 37,000  Level Houston Center
05:49PM 31.0597 -88.3564 55° Northeast 519 597 37,000  Level Houston Center
05:50PM 31.1403 -88.2158 56° Northeast 529 609 37,000  Level Houston Center
05:51PM 31.2217 -88.0783 55° Northeast 516 594 37,000  Level Houston Center
05:52PM 31.3025 -87.9422 55° Northeast 500 575 37,000  Level Houston Center
05:53PM 31.3814 -87.8044 56° Northeast 508 585 37,000  Level Houston Center
05:54PM 31.4769 -87.6425 55° Northeast 504 580 37,000  Level Atlanta Center
05:55PM 31.5583 -87.5042 55° Northeast 510 587 37,000  Level Atlanta Center
05:56PM 31.6392 -87.3636 56° Northeast 510 587 37,000  Level Atlanta Center
05:57PM 31.7139 -87.2247 58° Northeast 510 587 37,000  Level Atlanta Center
05:58PM 31.7925 -87.0833 57° Northeast 505 581 37,000  Level Atlanta Center
05:59PM 31.8711 -86.9467 56° Northeast 505 581 37,000  Level Atlanta Center
06:00PM 31.9472 -86.8094 57° Northeast 505 581 37,000  Level Atlanta Center
06:01PM 32.0317 -86.6725 54° Northeast 505 581 37,000  Level Atlanta Center
06:02PM 32.1075 -86.5350 57° Northeast 505 581 37,000  Level Atlanta Center
06:03PM 32.1583 -86.3867 68° East 499 574 37,000  Level Atlanta Center
06:04PM 32.2242 -86.2167 65° Northeast 486 559 37,000  Level Atlanta Center
06:05PM 32.2686 -86.0581 72° East 506 582 37,000  Level Atlanta Center
06:06PM 32.3211 -85.9019 68° East 506 582 37,000  Level Atlanta Center
06:07PM 32.3778 -85.7408 67° East 506 582 37,000  Level Atlanta Center
06:08PM 32.4319 -85.5867 67° East 512 589 37,000  Level Atlanta Center
06:09PM 32.4839 -85.4325 68° East 507 583 37,000  Level Atlanta Center
06:10PM 32.5356 -85.2781 68° East 507 583 37,000  Level Atlanta Center
06:11PM 32.5914 -85.1236 67° East 507 583 37,000  Level Atlanta Center
06:12PM 32.6344 -84.9639 72° East 507 583 37,000  Level Atlanta Center
06:13PM 32.6875 -84.8164 67° East 501 577 37,000  Level Atlanta Center
06:14PM 32.7386 -84.6586 69° East 501 577 37,000  Level Atlanta Center
06:15PM 32.7936 -84.5008 67° East 501 577 37,000  Level Atlanta Center
06:16PM 32.8378 -84.3578 70° East 507 583 37,000  Level Atlanta Center
06:17PM 32.8944 -84.1872 68° East 507 583 37,000  Level Atlanta Center
06:18PM 32.9447 -84.0314 69° East 507 583 37,000  Level Atlanta Center
06:19PM 32.9967 -83.8703 69° East 507 583 37,000  Level Atlanta Center
06:20PM 33.0444 -83.7167 70° East 502 578 37,000  Level Atlanta Center
06:21PM 33.0900 -83.5728 69° East 509 586 37,000  Level Atlanta Center
06:22PM 33.1394 -83.4161 69° East 509 586 37,000  Level Atlanta Center
06:23PM 33.1947 -83.2444 69° East 509 586 37,000  Level Atlanta Center
06:24PM 33.2314 -83.1175 71° East 509 586 37,000  Level Atlanta Center
06:25PM 33.2944 -82.9278 68° East 504 580 37,000 -600 Level Atlanta Center
06:26PM 33.3411 -82.7706 70° East 494 568 35,900 -1,020 Descending Atlanta Center
06:27PM 33.3894 -82.6206 69° East 488 562 35,000 -720 Descending Atlanta Center
06:28PM 33.4356 -82.4706 70° East 481 554 34,500 -1,020 Descending Atlanta Center
06:29PM 33.4797 -82.3278 70° East 469 540 33,000 -780 Descending Atlanta Center
06:30PM 33.5192 -82.1800 72° East 458 527 33,000  Level Atlanta Center
06:32PM 33.6256 -81.8525 69° East 481 554 33,000  Level Jacksonville Center
06:33PM 33.7058 -81.7242 53° Northeast 465 535 33,000  Level Jacksonville Center
06:34PM 33.7819 -81.6108 51° Northeast 474 545 33,000  Level Jacksonville Center
06:35PM 33.8642 -81.4869 51° Northeast 474 545 33,000  Level Jacksonville Center
06:36PM 33.9439 -81.3631 52° Northeast 474 545 33,000 -480 Level Jacksonville Center
06:37PM 34.0300 -81.2361 51° Northeast 474 545 32,100 -1,440 Descending Jacksonville Center
06:38PM 34.1117 -81.1092 52° Northeast 474 545 30,200 -1,620 Descending Jacksonville Center
06:39PM 34.1956 -80.9819 51° Northeast 482 555 28,900 -600 Descending Jacksonville Center
06:40PM 34.2769 -80.8572 52° Northeast 476 548 29,000 -900 Climbing Jacksonville Center
06:41PM 34.3622 -80.7217 53° Northeast 476 548 27,100 -1,800 Descending Jacksonville Center
06:42PM 34.4394 -80.6067 51° Northeast 477 549 25,400 -1,140 Descending Jacksonville Center
06:44PM 34.6186 -80.3189 53° Northeast 467 537 23,400 -780 Descending Washington Center
06:45PM 34.6944 -80.1994 52° Northeast 447 514 23,000 -240 Descending Washington Center
06:46PM 34.7764 -80.0750 51° Northeast 452 520 23,000  Level Washington Center
06:47PM 34.8678 -79.9711 43° Northeast 452 520 23,000  Level Washington Center
06:48PM 34.9614 -79.8647 43° Northeast 452 520 23,000 -180 Level Washington Center
06:49PM 35.0567 -79.7633 41° Northeast 452 520 22,700 -1,020 Descending Washington Center
06:50PM 35.1433 -79.6686 42° Northeast 434 499 21,000 -1,680 Descending Washington Center
06:51PM 35.2256 -79.5864 39° Northeast 373 429 19,400 -2,160 Descending Washington Center
06:52PM 35.2661 -79.5556 32° Northeast 367 422 17,800 -3,060 Descending Washington Center
06:52PM 35.3133 -79.5222 30° Northeast 373 429 16,400 -3,000 Descending Washington Center
06:53PM 35.3536 -79.4986 26° Northeast 374 430 15,100 -2,640 Descending Washington Center
06:53PM 35.4028 -79.4603 32° Northeast 368 423 13,800 -2,160 Descending Washington Center
06:54PM 35.4519 -79.4294 27° Northeast 354 407 12,700 -1,620 Descending Washington Center
06:54PM 35.4819 -79.4053 33° Northeast 335 386 12,200 -1,260 Descending Washington Center
06:55PM 35.5383 -79.3342 46° Northeast 299 344 10,900 -1,560 Descending Washington Center
06:56PM 35.5669 -79.2869 53° Northeast 268 308 9,700 -2,100 Descending Washington Center
06:56PM 35.5825 -79.2594 55° Northeast 275 316 8,800 -2,100 Descending Washington Center
06:57PM 35.5939 -79.2294 65° Northeast 278 320 8,200 -1,740 Descending Washington Center
06:57PM 35.6247 -79.1719 57° Northeast 289 333 7,100 -1,620 Descending Washington Center
06:58PM 35.6403 -79.1419 57° Northeast 287 330 6,600 -1,020 Descending Washington Center
06:58PM 35.6644 -79.0944 58° Northeast 282 325 6,100 -1,080 Descending Washington Center
06:59PM 35.6844 -79.0544 58° Northeast 260 299 5,300 -1,440 Descending Washington Center
06:59PM 35.7042 -79.0194 55° Northeast 263 303 4,700 -1,440 Descending Washington Center
07:00PM 35.7303 -78.9822 49° Northeast 244 281 3,900 -1,200 Descending Washington Center
07:00PM 35.7478 -78.9575 49° Northeast 252 290 3,500 -840 Descending Washington Center
07:01PM 35.7736 -78.9278 43° Northeast 220 253 3,100 -660 Descending Washington Center